sensor_id;sensor_type;location;lat;lon;timestamp;P1;durP1;ratioP1;P2;durP2;ratioP2
21543;SDS011;10933;50.754;11.508;2023-12-07T00:01:18;15.73;;;14.73;;
21543;SDS011;10933;50.754;11.508;2023-12-07T00:03:44;17.87;;;16.47;;
21543;SDS011;10933;50.754;11.508;2023-12-07T00:06:10;17.40;;;16.13;;
21543;SDS011;10933;50.754;11.508;2023-12-07T00:08:36;16.63;;;15.43;;
21543;SDS011;10933;50.754;11.508;2023-12-07T00:11:02;16.53;;;15.07;;
21543;SDS011;10933;50.754;11.508;2023-12-07T00:13:27;15.37;;;14.10;;
21543;SDS011;10933;50.754;11.508;2023-12-07T00:15:53;15.20;;;14.00;;
21543;SDS011;10933;50.754;11.508;2023-12-07T00:18:19;15.33;;;14.37;;
21543;SDS011;10933;50.754;11.508;2023-12-07T00:20:45;16.93;;;15.60;;
21543;SDS011;10933;50.754;11.508;2023-12-07T00:23:11;16.03;;;14.80;;
21543;SDS011;10933;50.754;11.508;2023-12-07T00:25:36;16.53;;;15.43;;
21543;SDS011;10933;50.754;11.508;2023-12-07T00:28:03;16.13;;;14.97;;
21543;SDS011;10933;50.754;11.508;2023-12-07T00:30:30;16.97;;;15.40;;
21543;SDS011;10933;50.754;11.508;2023-12-07T00:32:56;15.63;;;14.63;;
21543;SDS011;10933;50.754;11.508;2023-12-07T00:35:21;15.73;;;14.53;;
21543;SDS011;10933;50.754;11.508;2023-12-07T00:37:47;17.23;;;15.97;;
21543;SDS011;10933;50.754;11.508;2023-12-07T00:40:13;17.17;;;15.77;;
21543;SDS011;10933;50.754;11.508;2023-12-07T00:42:39;17.90;;;16.47;;
21543;SDS011;10933;50.754;11.508;2023-12-07T00:45:05;20.40;;;18.70;;
21543;SDS011;10933;50.754;11.508;2023-12-07T00:47:31;19.03;;;17.47;;
21543;SDS011;10933;50.754;11.508;2023-12-07T00:49:57;20.03;;;18.00;;
21543;SDS011;10933;50.754;11.508;2023-12-07T00:52:23;17.93;;;16.73;;
21543;SDS011;10933;50.754;11.508;2023-12-07T00:54:48;17.67;;;16.47;;
21543;SDS011;10933;50.754;11.508;2023-12-07T00:57:14;17.20;;;16.00;;
21543;SDS011;10933;50.754;11.508;2023-12-07T00:59:40;16.53;;;15.53;;
21543;SDS011;10933;50.754;11.508;2023-12-07T01:02:06;18.70;;;17.10;;
21543;SDS011;10933;50.754;11.508;2023-12-07T01:04:32;17.60;;;16.40;;
21543;SDS011;10933;50.754;11.508;2023-12-07T01:06:58;17.77;;;16.27;;
21543;SDS011;10933;50.754;11.508;2023-12-07T01:09:24;16.80;;;15.60;;
21543;SDS011;10933;50.754;11.508;2023-12-07T01:11:51;16.30;;;15.20;;
21543;SDS011;10933;50.754;11.508;2023-12-07T01:14:17;17.30;;;15.87;;
21543;SDS011;10933;50.754;11.508;2023-12-07T01:16:44;17.17;;;15.63;;
21543;SDS011;10933;50.754;11.508;2023-12-07T01:19:10;14.70;;;13.80;;
21543;SDS011;10933;50.754;11.508;2023-12-07T01:21:39;14.70;;;13.77;;
21543;SDS011;10933;50.754;11.508;2023-12-07T01:24:06;15.83;;;14.73;;
21543;SDS011;10933;50.754;11.508;2023-12-07T01:26:35;14.50;;;13.60;;
21543;SDS011;10933;50.754;11.508;2023-12-07T01:29:01;16.13;;;14.93;;
21543;SDS011;10933;50.754;11.508;2023-12-07T01:31:27;15.60;;;14.50;;
21543;SDS011;10933;50.754;11.508;2023-12-07T01:33:54;15.53;;;14.40;;
21543;SDS011;10933;50.754;11.508;2023-12-07T01:36:21;15.53;;;14.43;;
21543;SDS011;10933;50.754;11.508;2023-12-07T01:38:46;15.80;;;14.70;;
21543;SDS011;10933;50.754;11.508;2023-12-07T01:41:12;14.83;;;13.83;;
21543;SDS011;10933;50.754;11.508;2023-12-07T01:43:44;14.33;;;13.33;;
21543;SDS011;10933;50.754;11.508;2023-12-07T01:46:11;14.53;;;13.40;;
21543;SDS011;10933;50.754;11.508;2023-12-07T01:48:38;14.73;;;13.73;;
21543;SDS011;10933;50.754;11.508;2023-12-07T01:51:04;13.97;;;13.03;;
21543;SDS011;10933;50.754;11.508;2023-12-07T01:53:31;15.90;;;14.50;;
21543;SDS011;10933;50.754;11.508;2023-12-07T01:55:58;14.57;;;13.57;;
21543;SDS011;10933;50.754;11.508;2023-12-07T01:58:24;13.83;;;12.57;;
21543;SDS011;10933;50.754;11.508;2023-12-07T02:00:50;14.03;;;12.87;;
21543;SDS011;10933;50.754;11.508;2023-12-07T02:03:16;14.97;;;13.67;;
21543;SDS011;10933;50.754;11.508;2023-12-07T02:05:43;15.03;;;13.93;;
21543;SDS011;10933;50.754;11.508;2023-12-07T02:08:13;14.07;;;13.17;;
21543;SDS011;10933;50.754;11.508;2023-12-07T02:10:39;13.80;;;12.90;;
21543;SDS011;10933;50.754;11.508;2023-12-07T02:13:06;13.57;;;12.60;;
21543;SDS011;10933;50.754;11.508;2023-12-07T02:15:32;12.27;;;11.47;;
21543;SDS011;10933;50.754;11.508;2023-12-07T02:23:37;13.27;;;12.37;;
21543;SDS011;10933;50.754;11.508;2023-12-07T02:28:59;12.97;;;12.13;;
21543;SDS011;10933;50.754;11.508;2023-12-07T02:31:25;12.37;;;11.53;;
21543;SDS011;10933;50.754;11.508;2023-12-07T02:33:51;14.20;;;13.13;;
21543;SDS011;10933;50.754;11.508;2023-12-07T02:36:17;14.37;;;12.90;;
21543;SDS011;10933;50.754;11.508;2023-12-07T02:38:49;13.03;;;12.13;;
21543;SDS011;10933;50.754;11.508;2023-12-07T02:41:18;12.90;;;12.10;;
21543;SDS011;10933;50.754;11.508;2023-12-07T02:43:45;12.50;;;11.67;;
21543;SDS011;10933;50.754;11.508;2023-12-07T02:46:12;13.47;;;12.57;;
21543;SDS011;10933;50.754;11.508;2023-12-07T02:48:38;13.20;;;12.20;;
21543;SDS011;10933;50.754;11.508;2023-12-07T02:51:03;12.97;;;12.03;;
21543;SDS011;10933;50.754;11.508;2023-12-07T02:53:29;13.33;;;12.43;;
21543;SDS011;10933;50.754;11.508;2023-12-07T02:55:55;13.33;;;12.33;;
21543;SDS011;10933;50.754;11.508;2023-12-07T02:58:21;13.53;;;12.50;;
21543;SDS011;10933;50.754;11.508;2023-12-07T03:00:46;13.70;;;12.73;;
21543;SDS011;10933;50.754;11.508;2023-12-07T03:03:12;13.83;;;12.83;;
21543;SDS011;10933;50.754;11.508;2023-12-07T03:05:38;13.53;;;12.63;;
21543;SDS011;10933;50.754;11.508;2023-12-07T03:08:03;13.90;;;13.00;;
21543;SDS011;10933;50.754;11.508;2023-12-07T03:10:29;13.97;;;12.60;;
21543;SDS011;10933;50.754;11.508;2023-12-07T03:12:55;13.63;;;12.73;;
21543;SDS011;10933;50.754;11.508;2023-12-07T03:15:20;13.67;;;12.63;;
21543;SDS011;10933;50.754;11.508;2023-12-07T03:17:46;13.67;;;12.67;;
21543;SDS011;10933;50.754;11.508;2023-12-07T03:20:12;14.47;;;13.27;;
21543;SDS011;10933;50.754;11.508;2023-12-07T03:22:38;13.37;;;12.37;;
21543;SDS011;10933;50.754;11.508;2023-12-07T03:25:04;14.17;;;13.17;;
21543;SDS011;10933;50.754;11.508;2023-12-07T03:27:30;14.07;;;12.93;;
21543;SDS011;10933;50.754;11.508;2023-12-07T03:29:56;14.17;;;12.93;;
21543;SDS011;10933;50.754;11.508;2023-12-07T03:32:22;13.43;;;12.33;;
21543;SDS011;10933;50.754;11.508;2023-12-07T03:34:47;13.50;;;12.60;;
21543;SDS011;10933;50.754;11.508;2023-12-07T03:37:13;13.63;;;12.73;;
21543;SDS011;10933;50.754;11.508;2023-12-07T03:39:39;12.77;;;11.97;;
21543;SDS011;10933;50.754;11.508;2023-12-07T03:42:04;13.57;;;12.67;;
21543;SDS011;10933;50.754;11.508;2023-12-07T03:44:30;13.87;;;12.83;;
21543;SDS011;10933;50.754;11.508;2023-12-07T03:46:56;12.77;;;11.87;;
21543;SDS011;10933;50.754;11.508;2023-12-07T03:49:22;13.03;;;12.13;;
21543;SDS011;10933;50.754;11.508;2023-12-07T03:51:47;14.33;;;13.17;;
21543;SDS011;10933;50.754;11.508;2023-12-07T03:54:13;14.17;;;13.17;;
21543;SDS011;10933;50.754;11.508;2023-12-07T03:56:39;17.93;;;16.13;;
21543;SDS011;10933;50.754;11.508;2023-12-07T03:59:07;21.63;;;19.57;;
21543;SDS011;10933;50.754;11.508;2023-12-07T04:01:33;14.63;;;13.50;;
21543;SDS011;10933;50.754;11.508;2023-12-07T04:03:59;14.80;;;13.90;;
21543;SDS011;10933;50.754;11.508;2023-12-07T04:06:25;15.50;;;14.40;;
21543;SDS011;10933;50.754;11.508;2023-12-07T04:08:52;14.70;;;13.70;;
21543;SDS011;10933;50.754;11.508;2023-12-07T04:11:17;14.60;;;13.60;;
21543;SDS011;10933;50.754;11.508;2023-12-07T04:13:44;15.47;;;14.17;;
21543;SDS011;10933;50.754;11.508;2023-12-07T04:16:10;13.60;;;12.60;;
21543;SDS011;10933;50.754;11.508;2023-12-07T04:18:37;14.37;;;13.27;;
21543;SDS011;10933;50.754;11.508;2023-12-07T04:21:03;14.13;;;12.87;;
21543;SDS011;10933;50.754;11.508;2023-12-07T04:23:30;15.17;;;14.07;;
21543;SDS011;10933;50.754;11.508;2023-12-07T04:25:56;14.83;;;13.43;;
21543;SDS011;10933;50.754;11.508;2023-12-07T04:28:22;15.60;;;13.57;;
21543;SDS011;10933;50.754;11.508;2023-12-07T04:30:47;15.67;;;14.27;;
21543;SDS011;10933;50.754;11.508;2023-12-07T04:33:13;15.27;;;14.17;;
21543;SDS011;10933;50.754;11.508;2023-12-07T04:35:39;16.47;;;15.10;;
21543;SDS011;10933;50.754;11.508;2023-12-07T04:38:05;15.23;;;13.93;;
21543;SDS011;10933;50.754;11.508;2023-12-07T04:40:30;15.57;;;14.27;;
21543;SDS011;10933;50.754;11.508;2023-12-07T04:42:56;14.50;;;13.50;;
21543;SDS011;10933;50.754;11.508;2023-12-07T04:45:22;15.33;;;14.23;;
21543;SDS011;10933;50.754;11.508;2023-12-07T04:47:47;15.73;;;14.57;;
21543;SDS011;10933;50.754;11.508;2023-12-07T04:50:13;13.87;;;12.73;;
21543;SDS011;10933;50.754;11.508;2023-12-07T04:52:39;13.70;;;12.80;;
21543;SDS011;10933;50.754;11.508;2023-12-07T04:55:05;14.93;;;13.53;;
21543;SDS011;10933;50.754;11.508;2023-12-07T04:57:35;14.77;;;13.67;;
21543;SDS011;10933;50.754;11.508;2023-12-07T05:00:04;13.97;;;13.03;;
21543;SDS011;10933;50.754;11.508;2023-12-07T05:02:35;14.00;;;13.00;;
21543;SDS011;10933;50.754;11.508;2023-12-07T05:05:01;13.93;;;12.73;;
21543;SDS011;10933;50.754;11.508;2023-12-07T05:07:27;15.63;;;14.30;;
21543;SDS011;10933;50.754;11.508;2023-12-07T05:09:52;14.70;;;13.60;;
21543;SDS011;10933;50.754;11.508;2023-12-07T05:12:18;19.63;;;17.67;;
21543;SDS011;10933;50.754;11.508;2023-12-07T05:14:44;29.07;;;21.97;;
21543;SDS011;10933;50.754;11.508;2023-12-07T05:17:10;24.23;;;19.07;;
21543;SDS011;10933;50.754;11.508;2023-12-07T05:19:36;22.33;;;20.00;;
21543;SDS011;10933;50.754;11.508;2023-12-07T05:22:01;19.23;;;17.63;;
21543;SDS011;10933;50.754;11.508;2023-12-07T05:24:27;15.73;;;14.47;;
21543;SDS011;10933;50.754;11.508;2023-12-07T05:26:53;15.70;;;14.40;;
21543;SDS011;10933;50.754;11.508;2023-12-07T05:29:19;18.00;;;16.50;;
21543;SDS011;10933;50.754;11.508;2023-12-07T05:31:45;16.83;;;15.67;;
21543;SDS011;10933;50.754;11.508;2023-12-07T05:34:15;16.80;;;15.33;;
21543;SDS011;10933;50.754;11.508;2023-12-07T05:36:42;14.17;;;13.17;;
21543;SDS011;10933;50.754;11.508;2023-12-07T05:39:08;17.10;;;15.67;;
21543;SDS011;10933;50.754;11.508;2023-12-07T05:41:36;16.87;;;15.33;;
21543;SDS011;10933;50.754;11.508;2023-12-07T05:44:02;15.53;;;14.27;;
21543;SDS011;10933;50.754;11.508;2023-12-07T05:46:28;17.37;;;16.03;;
21543;SDS011;10933;50.754;11.508;2023-12-07T05:48:54;16.00;;;14.37;;
21543;SDS011;10933;50.754;11.508;2023-12-07T05:51:20;15.47;;;14.23;;
21543;SDS011;10933;50.754;11.508;2023-12-07T05:53:47;16.37;;;15.17;;
21543;SDS011;10933;50.754;11.508;2023-12-07T05:56:17;13.60;;;12.50;;
21543;SDS011;10933;50.754;11.508;2023-12-07T05:58:46;14.63;;;13.63;;
21543;SDS011;10933;50.754;11.508;2023-12-07T06:01:18;15.00;;;14.00;;
21543;SDS011;10933;50.754;11.508;2023-12-07T06:03:44;16.60;;;15.17;;
21543;SDS011;10933;50.754;11.508;2023-12-07T06:06:11;16.37;;;14.73;;
21543;SDS011;10933;50.754;11.508;2023-12-07T06:08:37;15.70;;;14.40;;
21543;SDS011;10933;50.754;11.508;2023-12-07T06:11:06;16.87;;;15.37;;
21543;SDS011;10933;50.754;11.508;2023-12-07T06:13:32;15.27;;;14.07;;
21543;SDS011;10933;50.754;11.508;2023-12-07T06:15:59;17.20;;;15.43;;
21543;SDS011;10933;50.754;11.508;2023-12-07T06:18:26;18.17;;;16.50;;
21543;SDS011;10933;50.754;11.508;2023-12-07T06:20:52;18.30;;;16.67;;
21543;SDS011;10933;50.754;11.508;2023-12-07T06:23:18;15.97;;;14.50;;
21543;SDS011;10933;50.754;11.508;2023-12-07T06:25:50;15.33;;;14.23;;
21543;SDS011;10933;50.754;11.508;2023-12-07T06:28:15;16.33;;;14.93;;
21543;SDS011;10933;50.754;11.508;2023-12-07T06:30:41;18.40;;;16.47;;
21543;SDS011;10933;50.754;11.508;2023-12-07T06:33:07;18.00;;;15.63;;
21543;SDS011;10933;50.754;11.508;2023-12-07T06:35:33;17.97;;;16.40;;
21543;SDS011;10933;50.754;11.508;2023-12-07T06:38:00;17.53;;;15.90;;
21543;SDS011;10933;50.754;11.508;2023-12-07T06:40:25;16.90;;;15.23;;
21543;SDS011;10933;50.754;11.508;2023-12-07T06:42:51;16.57;;;15.37;;
21543;SDS011;10933;50.754;11.508;2023-12-07T06:45:17;22.27;;;16.80;;
21543;SDS011;10933;50.754;11.508;2023-12-07T06:47:42;17.80;;;15.93;;
21543;SDS011;10933;50.754;11.508;2023-12-07T06:50:08;16.33;;;14.83;;
21543;SDS011;10933;50.754;11.508;2023-12-07T06:52:37;16.20;;;14.63;;
21543;SDS011;10933;50.754;11.508;2023-12-07T06:55:05;17.13;;;15.73;;
21543;SDS011;10933;50.754;11.508;2023-12-07T06:57:32;14.97;;;13.77;;
21543;SDS011;10933;50.754;11.508;2023-12-07T07:00:02;15.33;;;14.03;;
21543;SDS011;10933;50.754;11.508;2023-12-07T07:02:32;15.00;;;13.93;;
21543;SDS011;10933;50.754;11.508;2023-12-07T07:04:57;14.57;;;13.47;;
21543;SDS011;10933;50.754;11.508;2023-12-07T07:07:23;15.47;;;14.27;;
21543;SDS011;10933;50.754;11.508;2023-12-07T07:09:49;14.67;;;13.27;;
21543;SDS011;10933;50.754;11.508;2023-12-07T07:12:16;15.17;;;13.93;;
21543;SDS011;10933;50.754;11.508;2023-12-07T07:14:42;14.40;;;13.33;;
21543;SDS011;10933;50.754;11.508;2023-12-07T07:17:08;15.20;;;13.80;;
21543;SDS011;10933;50.754;11.508;2023-12-07T07:19:34;15.07;;;13.87;;
21543;SDS011;10933;50.754;11.508;2023-12-07T07:22:00;17.07;;;15.47;;
21543;SDS011;10933;50.754;11.508;2023-12-07T07:24:25;22.03;;;16.53;;
21543;SDS011;10933;50.754;11.508;2023-12-07T07:26:51;18.60;;;16.03;;
21543;SDS011;10933;50.754;11.508;2023-12-07T07:29:17;16.40;;;15.00;;
21543;SDS011;10933;50.754;11.508;2023-12-07T07:31:43;20.77;;;18.00;;
21543;SDS011;10933;50.754;11.508;2023-12-07T07:34:08;31.10;;;22.60;;
21543;SDS011;10933;50.754;11.508;2023-12-07T07:36:34;31.57;;;24.73;;
21543;SDS011;10933;50.754;11.508;2023-12-07T07:39:00;25.17;;;22.20;;
21543;SDS011;10933;50.754;11.508;2023-12-07T07:41:26;25.40;;;22.73;;
21543;SDS011;10933;50.754;11.508;2023-12-07T07:43:51;25.97;;;20.97;;
21543;SDS011;10933;50.754;11.508;2023-12-07T07:46:17;20.73;;;19.03;;
21543;SDS011;10933;50.754;11.508;2023-12-07T07:48:43;17.20;;;15.93;;
21543;SDS011;10933;50.754;11.508;2023-12-07T07:51:09;17.90;;;16.33;;
21543;SDS011;10933;50.754;11.508;2023-12-07T07:53:34;16.73;;;15.33;;
21543;SDS011;10933;50.754;11.508;2023-12-07T07:56:02;16.97;;;15.67;;
21543;SDS011;10933;50.754;11.508;2023-12-07T07:58:28;21.70;;;19.07;;
21543;SDS011;10933;50.754;11.508;2023-12-07T08:00:53;26.63;;;21.87;;
21543;SDS011;10933;50.754;11.508;2023-12-07T08:03:19;36.67;;;25.97;;
21543;SDS011;10933;50.754;11.508;2023-12-07T08:05:45;53.23;;;31.23;;
21543;SDS011;10933;50.754;11.508;2023-12-07T08:08:10;74.43;;;30.13;;
21543;SDS011;10933;50.754;11.508;2023-12-07T08:10:36;46.07;;;25.23;;
21543;SDS011;10933;50.754;11.508;2023-12-07T08:13:03;45.90;;;23.63;;
21543;SDS011;10933;50.754;11.508;2023-12-07T08:15:28;37.10;;;22.43;;
21543;SDS011;10933;50.754;11.508;2023-12-07T08:17:54;49.77;;;23.27;;
21543;SDS011;10933;50.754;11.508;2023-12-07T08:20:21;32.63;;;21.93;;
21543;SDS011;10933;50.754;11.508;2023-12-07T08:22:46;28.23;;;18.87;;
21543;SDS011;10933;50.754;11.508;2023-12-07T08:25:12;28.13;;;18.83;;
21543;SDS011;10933;50.754;11.508;2023-12-07T08:27:38;37.37;;;19.83;;
21543;SDS011;10933;50.754;11.508;2023-12-07T08:30:04;73.53;;;25.43;;
21543;SDS011;10933;50.754;11.508;2023-12-07T08:32:31;59.07;;;25.57;;
21543;SDS011;10933;50.754;11.508;2023-12-07T08:34:57;97.23;;;31.63;;
21543;SDS011;10933;50.754;11.508;2023-12-07T08:37:23;87.27;;;32.17;;
21543;SDS011;10933;50.754;11.508;2023-12-07T08:39:48;58.33;;;25.93;;
21543;SDS011;10933;50.754;11.508;2023-12-07T08:42:14;41.53;;;23.43;;
21543;SDS011;10933;50.754;11.508;2023-12-07T08:44:40;78.10;;;28.63;;
21543;SDS011;10933;50.754;11.508;2023-12-07T08:47:07;68.90;;;27.00;;
21543;SDS011;10933;50.754;11.508;2023-12-07T08:49:33;32.70;;;20.87;;
21543;SDS011;10933;50.754;11.508;2023-12-07T08:51:59;54.13;;;21.40;;
21543;SDS011;10933;50.754;11.508;2023-12-07T08:54:24;46.60;;;18.43;;
21543;SDS011;10933;50.754;11.508;2023-12-07T08:56:50;16.47;;;15.07;;
21543;SDS011;10933;50.754;11.508;2023-12-07T08:59:16;16.27;;;14.60;;
21543;SDS011;10933;50.754;11.508;2023-12-07T09:01:42;16.17;;;14.90;;
21543;SDS011;10933;50.754;11.508;2023-12-07T09:04:08;18.73;;;16.67;;
21543;SDS011;10933;50.754;11.508;2023-12-07T09:06:34;17.70;;;16.13;;
21543;SDS011;10933;50.754;11.508;2023-12-07T09:09:01;17.27;;;15.87;;
21543;SDS011;10933;50.754;11.508;2023-12-07T09:11:29;17.53;;;15.90;;
21543;SDS011;10933;50.754;11.508;2023-12-07T09:13:56;39.07;;;24.77;;
21543;SDS011;10933;50.754;11.508;2023-12-07T09:16:23;37.50;;;24.37;;
21543;SDS011;10933;50.754;11.508;2023-12-07T09:18:50;18.57;;;16.83;;
21543;SDS011;10933;50.754;11.508;2023-12-07T09:21:16;31.83;;;19.60;;
21543;SDS011;10933;50.754;11.508;2023-12-07T09:23:42;37.50;;;22.07;;
21543;SDS011;10933;50.754;11.508;2023-12-07T09:26:08;31.60;;;21.43;;
21543;SDS011;10933;50.754;11.508;2023-12-07T09:28:34;24.83;;;19.30;;
21543;SDS011;10933;50.754;11.508;2023-12-07T09:31:00;19.30;;;17.20;;
21543;SDS011;10933;50.754;11.508;2023-12-07T09:33:26;24.43;;;18.43;;
21543;SDS011;10933;50.754;11.508;2023-12-07T09:35:52;30.60;;;21.63;;
21543;SDS011;10933;50.754;11.508;2023-12-07T09:38:18;31.10;;;21.03;;
21543;SDS011;10933;50.754;11.508;2023-12-07T09:40:45;32.77;;;20.03;;
21543;SDS011;10933;50.754;11.508;2023-12-07T09:43:11;33.60;;;22.57;;
21543;SDS011;10933;50.754;11.508;2023-12-07T09:45:38;52.53;;;29.40;;
21543;SDS011;10933;50.754;11.508;2023-12-07T09:48:04;105.97;;;47.13;;
21543;SDS011;10933;50.754;11.508;2023-12-07T09:50:32;74.83;;;36.07;;
21543;SDS011;10933;50.754;11.508;2023-12-07T09:52:58;63.53;;;31.37;;
21543;SDS011;10933;50.754;11.508;2023-12-07T09:55:24;26.30;;;22.23;;
21543;SDS011;10933;50.754;11.508;2023-12-07T09:57:50;26.27;;;21.03;;
21543;SDS011;10933;50.754;11.508;2023-12-07T10:00:17;29.00;;;22.37;;
21543;SDS011;10933;50.754;11.508;2023-12-07T10:02:44;25.17;;;22.43;;
21543;SDS011;10933;50.754;11.508;2023-12-07T10:05:12;34.83;;;24.27;;
21543;SDS011;10933;50.754;11.508;2023-12-07T10:07:41;33.83;;;21.70;;
21543;SDS011;10933;50.754;11.508;2023-12-07T10:10:15;32.47;;;22.20;;
21543;SDS011;10933;50.754;11.508;2023-12-07T10:15:20;22.60;;;20.20;;
21543;SDS011;10933;50.754;11.508;2023-12-07T10:20:26;39.60;;;22.43;;
21543;SDS011;10933;50.754;11.508;2023-12-07T10:25:27;21.27;;;18.87;;
21543;SDS011;10933;50.754;11.508;2023-12-07T10:27:54;17.50;;;16.20;;
21543;SDS011;10933;50.754;11.508;2023-12-07T10:30:20;18.33;;;16.43;;
21543;SDS011;10933;50.754;11.508;2023-12-07T10:32:50;17.00;;;15.60;;
21543;SDS011;10933;50.754;11.508;2023-12-07T10:35:17;15.97;;;14.87;;
21543;SDS011;10933;50.754;11.508;2023-12-07T10:37:44;17.57;;;16.03;;
21543;SDS011;10933;50.754;11.508;2023-12-07T10:40:11;18.23;;;16.77;;
21543;SDS011;10933;50.754;11.508;2023-12-07T10:42:37;18.57;;;17.17;;
21543;SDS011;10933;50.754;11.508;2023-12-07T10:45:07;18.30;;;17.00;;
21543;SDS011;10933;50.754;11.508;2023-12-07T10:47:35;20.67;;;18.77;;
21543;SDS011;10933;50.754;11.508;2023-12-07T10:50:06;19.87;;;18.13;;
21543;SDS011;10933;50.754;11.508;2023-12-07T10:52:36;20.60;;;18.70;;
21543;SDS011;10933;50.754;11.508;2023-12-07T10:55:12;18.83;;;17.23;;
21543;SDS011;10933;50.754;11.508;2023-12-07T10:57:45;17.83;;;16.37;;
21543;SDS011;10933;50.754;11.508;2023-12-07T11:00:12;18.80;;;17.10;;
21543;SDS011;10933;50.754;11.508;2023-12-07T11:02:38;18.83;;;17.17;;
21543;SDS011;10933;50.754;11.508;2023-12-07T11:05:06;18.10;;;16.70;;
21543;SDS011;10933;50.754;11.508;2023-12-07T11:07:38;17.97;;;16.37;;
21543;SDS011;10933;50.754;11.508;2023-12-07T11:10:17;26.23;;;21.30;;
21543;SDS011;10933;50.754;11.508;2023-12-07T11:13:16;41.27;;;26.80;;
21543;SDS011;10933;50.754;11.508;2023-12-07T11:15:48;24.60;;;21.77;;
21543;SDS011;10933;50.754;11.508;2023-12-07T11:18:14;24.07;;;21.67;;
21543;SDS011;10933;50.754;11.508;2023-12-07T11:23:09;28.10;;;24.83;;
21543;SDS011;10933;50.754;11.508;2023-12-07T11:25:36;26.23;;;21.10;;
21543;SDS011;10933;50.754;11.508;2023-12-07T11:28:10;25.30;;;22.73;;
21543;SDS011;10933;50.754;11.508;2023-12-07T11:30:37;29.87;;;23.77;;
21543;SDS011;10933;50.754;11.508;2023-12-07T11:33:08;38.70;;;25.67;;
21543;SDS011;10933;50.754;11.508;2023-12-07T11:38:29;21.73;;;19.50;;
21543;SDS011;10933;50.754;11.508;2023-12-07T11:40:55;17.03;;;15.93;;
21543;SDS011;10933;50.754;11.508;2023-12-07T11:46:03;16.37;;;15.17;;
21543;SDS011;10933;50.754;11.508;2023-12-07T11:48:29;17.70;;;16.00;;
21543;SDS011;10933;50.754;11.508;2023-12-07T11:53:25;16.90;;;15.43;;
21543;SDS011;10933;50.754;11.508;2023-12-07T11:56:00;19.13;;;17.33;;
21543;SDS011;10933;50.754;11.508;2023-12-07T11:58:29;20.50;;;18.40;;
21543;SDS011;10933;50.754;11.508;2023-12-07T12:00:56;18.80;;;17.03;;
21543;SDS011;10933;50.754;11.508;2023-12-07T12:03:23;18.03;;;16.53;;
21543;SDS011;10933;50.754;11.508;2023-12-07T12:05:50;18.33;;;16.83;;
21543;SDS011;10933;50.754;11.508;2023-12-07T12:08:17;20.93;;;19.00;;
21543;SDS011;10933;50.754;11.508;2023-12-07T12:10:44;21.50;;;19.53;;
21543;SDS011;10933;50.754;11.508;2023-12-07T12:13:11;21.50;;;18.33;;
21543;SDS011;10933;50.754;11.508;2023-12-07T12:15:38;18.63;;;17.33;;
21543;SDS011;10933;50.754;11.508;2023-12-07T12:18:04;19.03;;;17.17;;
21543;SDS011;10933;50.754;11.508;2023-12-07T12:20:32;18.60;;;17.00;;
21543;SDS011;10933;50.754;11.508;2023-12-07T12:22:58;17.83;;;16.60;;
21543;SDS011;10933;50.754;11.508;2023-12-07T12:25:26;18.80;;;17.33;;
21543;SDS011;10933;50.754;11.508;2023-12-07T12:27:58;19.63;;;18.03;;
21543;SDS011;10933;50.754;11.508;2023-12-07T12:30:28;21.07;;;18.97;;
21543;SDS011;10933;50.754;11.508;2023-12-07T12:32:55;20.83;;;18.83;;
21543;SDS011;10933;50.754;11.508;2023-12-07T12:35:22;22.87;;;20.83;;
21543;SDS011;10933;50.754;11.508;2023-12-07T12:37:49;20.40;;;18.77;;
21543;SDS011;10933;50.754;11.508;2023-12-07T12:40:16;21.00;;;19.27;;
21543;SDS011;10933;50.754;11.508;2023-12-07T12:42:48;21.10;;;19.20;;
21543;SDS011;10933;50.754;11.508;2023-12-07T12:45:16;22.17;;;20.30;;
21543;SDS011;10933;50.754;11.508;2023-12-07T12:47:44;24.37;;;21.00;;
21543;SDS011;10933;50.754;11.508;2023-12-07T12:50:12;24.87;;;21.03;;
21543;SDS011;10933;50.754;11.508;2023-12-07T12:53:05;22.07;;;19.77;;
21543;SDS011;10933;50.754;11.508;2023-12-07T12:55:33;22.80;;;20.63;;
21543;SDS011;10933;50.754;11.508;2023-12-07T12:58:06;22.27;;;19.13;;
21543;SDS011;10933;50.754;11.508;2023-12-07T13:00:34;21.33;;;18.93;;
21543;SDS011;10933;50.754;11.508;2023-12-07T13:03:03;19.80;;;18.27;;
21543;SDS011;10933;50.754;11.508;2023-12-07T13:05:31;19.63;;;17.80;;
21543;SDS011;10933;50.754;11.508;2023-12-07T13:07:59;24.37;;;20.80;;
21543;SDS011;10933;50.754;11.508;2023-12-07T13:10:26;23.07;;;20.83;;
21543;SDS011;10933;50.754;11.508;2023-12-07T13:12:52;19.63;;;18.20;;
21543;SDS011;10933;50.754;11.508;2023-12-07T13:15:18;20.80;;;19.07;;
21543;SDS011;10933;50.754;11.508;2023-12-07T13:17:44;20.30;;;18.33;;
21543;SDS011;10933;50.754;11.508;2023-12-07T13:20:10;21.33;;;18.27;;
21543;SDS011;10933;50.754;11.508;2023-12-07T13:22:38;21.17;;;19.57;;
21543;SDS011;10933;50.754;11.508;2023-12-07T13:25:11;21.27;;;19.27;;
21543;SDS011;10933;50.754;11.508;2023-12-07T13:27:39;26.53;;;23.83;;
21543;SDS011;10933;50.754;11.508;2023-12-07T13:30:05;26.37;;;23.50;;
21543;SDS011;10933;50.754;11.508;2023-12-07T13:32:32;27.07;;;21.93;;
21543;SDS011;10933;50.754;11.508;2023-12-07T13:34:59;22.83;;;20.80;;
21543;SDS011;10933;50.754;11.508;2023-12-07T13:37:25;24.93;;;22.57;;
21543;SDS011;10933;50.754;11.508;2023-12-07T13:39:52;29.33;;;25.17;;
21543;SDS011;10933;50.754;11.508;2023-12-07T13:42:22;29.70;;;26.50;;
21543;SDS011;10933;50.754;11.508;2023-12-07T13:44:52;36.63;;;28.47;;
21543;SDS011;10933;50.754;11.508;2023-12-07T13:47:23;37.73;;;28.37;;
21543;SDS011;10933;50.754;11.508;2023-12-07T13:50:01;30.20;;;25.97;;
21543;SDS011;10933;50.754;11.508;2023-12-07T13:52:29;25.33;;;23.00;;
21543;SDS011;10933;50.754;11.508;2023-12-07T13:54:58;34.13;;;25.33;;
21543;SDS011;10933;50.754;11.508;2023-12-07T13:57:24;30.03;;;24.70;;
21543;SDS011;10933;50.754;11.508;2023-12-07T13:59:51;27.67;;;23.90;;
21543;SDS011;10933;50.754;11.508;2023-12-07T14:02:17;20.97;;;18.97;;
21543;SDS011;10933;50.754;11.508;2023-12-07T14:04:44;19.10;;;17.47;;
21543;SDS011;10933;50.754;11.508;2023-12-07T14:07:17;17.10;;;15.87;;
21543;SDS011;10933;50.754;11.508;2023-12-07T14:09:46;17.87;;;16.27;;
21543;SDS011;10933;50.754;11.508;2023-12-07T14:12:15;17.27;;;15.87;;
21543;SDS011;10933;50.754;11.508;2023-12-07T14:14:45;20.07;;;18.47;;
21543;SDS011;10933;50.754;11.508;2023-12-07T14:17:12;20.50;;;18.90;;
21543;SDS011;10933;50.754;11.508;2023-12-07T14:19:39;16.77;;;15.57;;
21543;SDS011;10933;50.754;11.508;2023-12-07T14:22:06;18.23;;;16.60;;
21543;SDS011;10933;50.754;11.508;2023-12-07T14:24:34;19.03;;;17.40;;
21543;SDS011;10933;50.754;11.508;2023-12-07T14:27:04;19.37;;;17.80;;
21543;SDS011;10933;50.754;11.508;2023-12-07T14:29:32;19.40;;;17.90;;
21543;SDS011;10933;50.754;11.508;2023-12-07T14:31:58;20.33;;;18.53;;
21543;SDS011;10933;50.754;11.508;2023-12-07T14:34:25;21.03;;;18.77;;